Time;durP1;ratioP1;P1;durP2;ratioP2;P2;SDS_P1;SDS_P2;PMS_P1;PMS_P2;Temp;Humidity;BMP_temperature;BMP_pressure;BME280_temperature;BME280_humidity;BME280_pressure;Samples;Min_cycle;Max_cycle;Signal;HPM_P1;HPM_P2
2022/07/31 00:01:12;;;;;;;6.10;3.90;;;;;;;;;;5053061;28;20411;-72
2022/07/31 00:03:38;;;;;;;4.10;3.80;;;;;;;;;;5053095;28;20506;-68
2022/07/31 00:06:04;;;;;;;8.63;3.87;;;;;;;;;;5053233;28;20392;-71
2022/07/31 00:08:30;;;;;;;4.10;3.93;;;;;;;;;;5053131;28;20449;-68
2022/07/31 00:10:56;;;;;;;9.57;4.03;;;;;;;;;;5053368;28;20407;-65
2022/07/31 00:13:22;;;;;;;4.27;3.97;;;;;;;;;;5053023;28;20480;-68
2022/07/31 00:15:48;;;;;;;4.60;4.40;;;;;;;;;;5053278;28;20399;-66
2022/07/31 00:18:14;;;;;;;8.40;4.10;;;;;;;;;;5054408;28;20401;-68
2022/07/31 00:20:40;;;;;;;4.97;3.70;;;;;;;;;;5056347;28;20457;-70
2022/07/31 00:23:06;;;;;;;6.67;3.93;;;;;;;;;;5056676;28;20540;-68
2022/07/31 00:25:32;;;;;;;5.63;3.70;;;;;;;;;;5056819;28;20962;-67
2022/07/31 00:27:58;;;;;;;5.73;3.93;;;;;;;;;;5056730;28;20593;-68
2022/07/31 00:30:24;;;;;;;3.77;3.60;;;;;;;;;;5056754;28;20486;-69
2022/07/31 00:32:50;;;;;;;3.40;3.30;;;;;;;;;;5056691;28;20403;-67
2022/07/31 00:35:16;;;;;;;4.80;3.87;;;;;;;;;;5056600;28;20408;-70
2022/07/31 00:37:43;;;;;;;5.60;3.50;;;;;;;;;;5056577;28;20476;-71
2022/07/31 00:40:10;;;;;;;3.73;3.63;;;;;;;;;;5056748;28;20824;-69
2022/07/31 00:42:36;;;;;;;4.73;4.27;;;;;;;;;;5056392;28;20456;-66
2022/07/31 00:45:03;;;;;;;3.93;3.77;;;;;;;;;;5056463;28;20401;-68
2022/07/31 00:47:29;;;;;;;6.67;3.70;;;;;;;;;;5056290;28;20401;-71
2022/07/31 00:49:55;;;;;;;4.47;4.23;;;;;;;;;;5056308;28;20435;-68
2022/07/31 00:52:21;;;;;;;4.57;4.23;;;;;;;;;;5056181;28;20435;-71
2022/07/31 00:54:47;;;;;;;3.93;3.73;;;;;;;;;;5056483;28;20411;-70
2022/07/31 00:57:14;;;;;;;3.93;3.63;;;;;;;;;;5056374;28;20407;-67
2022/07/31 00:59:40;;;;;;;3.93;3.83;;;;;;;;;;5056196;28;20495;-68
2022/07/31 01:02:09;;;;;;;8.83;4.20;;;;;;;;;;5055944;28;20399;-67
2022/07/31 01:04:35;;;;;;;5.40;4.00;;;;;;;;;;5055982;28;20419;-70
2022/07/31 01:07:01;;;;;;;4.23;4.03;;;;;;;;;;5055944;28;20406;-67
2022/07/31 01:09:28;;;;;;;3.70;3.50;;;;;;;;;;5055823;28;20911;-67
2022/07/31 01:12:00;;;;;;;3.70;3.40;;;;;;;;;;5055916;28;20874;-69
2022/07/31 01:14:28;;;;;;;5.17;4.13;;;;;;;;;;5055939;28;20390;-70
2022/07/31 01:16:56;;;;;;;4.00;3.90;;;;;;;;;;5055726;28;20957;-70
2022/07/31 01:19:25;;;;;;;3.77;3.20;;;;;;;;;;5055811;28;20470;-68
2022/07/31 01:22:03;;;;;;;3.80;3.60;;;;;;;;;;5055724;28;20443;-68
2022/07/31 01:24:44;;;;;;;11.80;3.50;;;;;;;;;;5055654;28;20417;-67
2022/07/31 01:27:15;;;;;;;3.60;3.30;;;;;;;;;;5055722;28;20512;-69
2022/07/31 01:29:43;;;;;;;3.70;3.50;;;;;;;;;;5054535;28;20403;-66
2022/07/31 01:32:09;;;;;;;3.60;3.33;;;;;;;;;;5055773;28;20561;-67
2022/07/31 01:34:41;;;;;;;5.30;3.50;;;;;;;;;;5055356;28;20945;-67
2022/07/31 01:37:13;;;;;;;4.13;3.90;;;;;;;;;;5055438;28;20490;-72
2022/07/31 01:39:43;;;;;;;3.40;3.13;;;;;;;;;;5055344;28;20396;-67
2022/07/31 01:42:12;;;;;;;3.23;3.13;;;;;;;;;;5037910;28;20855;-72
2022/07/31 01:44:41;;;;;;;4.70;3.97;;;;;;;;;;5055094;28;20447;-72
2022/07/31 01:47:08;;;;;;;3.20;3.10;;;;;;;;;;5055466;28;20781;-72
2022/07/31 01:49:34;;;;;;;3.97;3.53;;;;;;;;;;5055410;28;20459;-67
2022/07/31 01:52:03;;;;;;;5.33;3.63;;;;;;;;;;5055116;28;20405;-68
2022/07/31 01:54:29;;;;;;;8.93;3.63;;;;;;;;;;5054974;28;20432;-70
2022/07/31 01:56:58;;;;;;;5.77;4.40;;;;;;;;;;5054955;28;20408;-69
2022/07/31 01:59:25;;;;;;;5.37;4.97;;;;;;;;;;5054902;28;20871;-68
2022/07/31 02:01:51;;;;;;;4.80;4.60;;;;;;;;;;5054877;28;20830;-68
2022/07/31 02:04:19;;;;;;;5.07;4.77;;;;;;;;;;5054835;28;20955;-66
2022/07/31 02:06:46;;;;;;;4.80;4.70;;;;;;;;;;5054813;28;20408;-69
2022/07/31 02:09:12;;;;;;;6.50;5.27;;;;;;;;;;5054874;28;20403;-71
2022/07/31 02:11:38;;;;;;;5.30;5.07;;;;;;;;;;5054719;28;20402;-68
2022/07/31 02:14:04;;;;;;;7.50;5.00;;;;;;;;;;5054573;28;20408;-69
2022/07/31 02:16:31;;;;;;;5.07;4.40;;;;;;;;;;5054562;28;20873;-68
2022/07/31 02:18:57;;;;;;;5.33;4.80;;;;;;;;;;5054417;28;20541;-67
2022/07/31 02:21:26;;;;;;;8.20;5.20;;;;;;;;;;5054455;28;20796;-69
2022/07/31 02:23:52;;;;;;;7.93;4.50;;;;;;;;;;5054428;28;20475;-69
2022/07/31 02:26:19;;;;;;;4.93;4.20;;;;;;;;;;5054445;28;20403;-68
2022/07/31 02:28:46;;;;;;;3.67;3.30;;;;;;;;;;5054483;28;20430;-67
2022/07/31 02:31:13;;;;;;;4.07;3.67;;;;;;;;;;5054619;28;20399;-69
2022/07/31 02:33:41;;;;;;;3.43;3.23;;;;;;;;;;5054267;28;20407;-72
2022/07/31 02:36:08;;;;;;;3.23;3.23;;;;;;;;;;5054119;28;20397;-71
2022/07/31 02:38:34;;;;;;;2.80;2.70;;;;;;;;;;5054194;28;20758;-71
2022/07/31 02:41:03;;;;;;;3.17;3.07;;;;;;;;;;5054027;28;20442;-68
2022/07/31 02:43:30;;;;;;;3.07;2.97;;;;;;;;;;5054258;28;20506;-67
2022/07/31 02:45:56;;;;;;;3.30;3.10;;;;;;;;;;5054260;28;20399;-71
2022/07/31 02:48:23;;;;;;;3.03;2.93;;;;;;;;;;5054080;28;20763;-68
2022/07/31 02:50:49;;;;;;;4.10;3.80;;;;;;;;;;5054280;28;20457;-71
2022/07/31 02:53:15;;;;;;;3.33;3.13;;;;;;;;;;5053969;28;20404;-66
2022/07/31 02:55:44;;;;;;;4.50;4.13;;;;;;;;;;5053926;28;20486;-68
2022/07/31 02:58:10;;;;;;;5.47;4.40;;;;;;;;;;5053842;28;20748;-69
2022/07/31 03:00:36;;;;;;;5.03;4.73;;;;;;;;;;5036145;28;20424;-72
2022/07/31 03:03:02;;;;;;;5.40;5.00;;;;;;;;;;5053813;28;20466;-70
2022/07/31 03:05:30;;;;;;;5.87;5.67;;;;;;;;;;5054036;28;20403;-72
2022/07/31 03:07:56;;;;;;;7.57;6.90;;;;;;;;;;5053966;28;20466;-68
2022/07/31 03:10:22;;;;;;;7.60;7.00;;;;;;;;;;5053702;28;20401;-66
2022/07/31 03:12:51;;;;;;;6.93;6.40;;;;;;;;;;5053690;28;20403;-68
2022/07/31 03:15:19;;;;;;;6.77;6.37;;;;;;;;;;5053761;28;20429;-69
2022/07/31 03:17:45;;;;;;;6.70;5.97;;;;;;;;;;5053434;28;20421;-66
2022/07/31 03:20:11;;;;;;;7.13;6.63;;;;;;;;;;5053355;28;20482;-68
2022/07/31 03:22:38;;;;;;;7.50;6.80;;;;;;;;;;5053413;28;20452;-72
2022/07/31 03:25:04;;;;;;;6.53;6.03;;;;;;;;;;5053713;28;20434;-70
2022/07/31 03:27:30;;;;;;;14.57;7.20;;;;;;;;;;5053503;28;20443;-72
2022/07/31 03:29:56;;;;;;;5.47;5.17;;;;;;;;;;5053093;28;20486;-73
2022/07/31 03:32:23;;;;;;;6.27;5.77;;;;;;;;;;5053369;28;20403;-71
2022/07/31 03:34:49;;;;;;;5.57;5.27;;;;;;;;;;5053404;28;20759;-70
2022/07/31 03:37:15;;;;;;;6.10;5.20;;;;;;;;;;5053215;28;20500;-69
2022/07/31 03:39:41;;;;;;;4.20;4.00;;;;;;;;;;5053390;28;20400;-69
2022/07/31 03:42:10;;;;;;;4.67;4.43;;;;;;;;;;5053303;28;20920;-65
2022/07/31 03:44:37;;;;;;;4.53;4.33;;;;;;;;;;5053435;28;20411;-70
2022/07/31 03:47:03;;;;;;;4.80;4.43;;;;;;;;;;5053242;28;20762;-68
2022/07/31 03:49:30;;;;;;;4.73;4.33;;;;;;;;;;5053019;28;20410;-68
2022/07/31 03:51:56;;;;;;;4.37;4.07;;;;;;;;;;5053401;28;20484;-71
2022/07/31 03:54:22;;;;;;;4.70;4.07;;;;;;;;;;5056999;28;20415;-68
2022/07/31 03:56:49;;;;;;;4.90;4.33;;;;;;;;;;5056282;28;20890;-65
2022/07/31 03:59:16;;;;;;;4.00;3.90;;;;;;;;;;5057413;28;20406;-69
2022/07/31 04:01:43;;;;;;;4.50;4.17;;;;;;;;;;5057346;28;20403;-73
2022/07/31 04:04:09;;;;;;;4.23;3.90;;;;;;;;;;5057210;28;20466;-67
2022/07/31 04:06:35;;;;;;;4.20;3.80;;;;;;;;;;5057179;28;20769;-74
2022/07/31 04:09:01;;;;;;;4.63;4.33;;;;;;;;;;5057400;28;20412;-75
2022/07/31 04:11:27;;;;;;;3.73;3.53;;;;;;;;;;5056988;28;20859;-76
2022/07/31 04:13:54;;;;;;;3.70;3.60;;;;;;;;;;5057085;28;20422;-75
2022/07/31 04:16:20;;;;;;;6.50;4.20;;;;;;;;;;5056858;28;20743;-71
2022/07/31 04:18:46;;;;;;;3.80;3.70;;;;;;;;;;5056792;28;20417;-72
2022/07/31 04:21:12;;;;;;;4.67;4.30;;;;;;;;;;5057268;28;20407;-72
2022/07/31 04:23:38;;;;;;;7.33;4.07;;;;;;;;;;5056937;28;20545;-71
2022/07/31 04:26:05;;;;;;;4.50;4.30;;;;;;;;;;5056876;28;20406;-73
2022/07/31 04:28:31;;;;;;;4.30;4.00;;;;;;;;;;5056912;28;20778;-73
2022/07/31 04:30:57;;;;;;;4.47;4.17;;;;;;;;;;5056831;28;20398;-72
2022/07/31 04:33:23;;;;;;;4.50;4.20;;;;;;;;;;5056754;28;20404;-72
2022/07/31 04:35:49;;;;;;;3.73;3.50;;;;;;;;;;5056992;28;20414;-72
2022/07/31 04:38:15;;;;;;;5.20;3.97;;;;;;;;;;5056708;28;20755;-74
2022/07/31 04:40:41;;;;;;;4.70;4.37;;;;;;;;;;5056883;28;20814;-74
2022/07/31 04:43:07;;;;;;;14.50;4.13;;;;;;;;;;5056540;28;20968;-75
2022/07/31 04:45:34;;;;;;;4.20;3.90;;;;;;;;;;5055308;28;20465;-74
2022/07/31 04:48:00;;;;;;;4.10;3.90;;;;;;;;;;5056476;28;20415;-73
2022/07/31 04:50:26;;;;;;;5.13;4.60;;;;;;;;;;5056453;28;20412;-75
2022/07/31 04:52:52;;;;;;;4.50;4.17;;;;;;;;;;5056321;28;20403;-74
2022/07/31 04:55:17;;;;;;;4.33;4.03;;;;;;;;;;5056149;28;20490;-71
2022/07/31 04:57:43;;;;;;;8.73;4.20;;;;;;;;;;5056035;28;20422;-71
2022/07/31 05:00:10;;;;;;;4.97;4.20;;;;;;;;;;5037907;28;20439;-72
2022/07/31 05:02:36;;;;;;;4.40;4.10;;;;;;;;;;5055071;28;20427;-75
2022/07/31 05:05:02;;;;;;;7.60;4.00;;;;;;;;;;5054885;28;20204;-72
2022/07/31 05:07:28;;;;;;;4.07;3.60;;;;;;;;;;5056064;28;20489;-73
2022/07/31 05:09:54;;;;;;;4.23;3.90;;;;;;;;;;5056068;28;20414;-75
2022/07/31 05:12:20;;;;;;;3.97;3.77;;;;;;;;;;5055995;28;20406;-76
2022/07/31 05:14:46;;;;;;;3.83;3.73;;;;;;;;;;5055952;28;20844;-74
2022/07/31 05:17:12;;;;;;;3.83;3.60;;;;;;;;;;5055905;28;20404;-75
2022/07/31 05:19:38;;;;;;;4.00;3.40;;;;;;;;;;5055613;28;20483;-75
2022/07/31 05:22:04;;;;;;;4.03;3.60;;;;;;;;;;5055787;28;20406;-72
2022/07/31 05:24:31;;;;;;;4.07;3.77;;;;;;;;;;5055870;28;20466;-75
2022/07/31 05:26:57;;;;;;;3.07;3.00;;;;;;;;;;5055660;28;20489;-76
2022/07/31 05:29:23;;;;;;;19.40;17.50;;;;;;;;;;5055671;28;20392;-74
2022/07/31 05:31:50;;;;;;;14.63;13.23;;;;;;;;;;5055642;28;20411;-71
2022/07/31 05:34:16;;;;;;;13.27;10.30;;;;;;;;;;5055769;28;20484;-74
2022/07/31 05:36:42;;;;;;;13.63;12.50;;;;;;;;;;5055548;28;20494;-75
2022/07/31 05:39:08;;;;;;;5.17;4.90;;;;;;;;;;5055466;28;20450;-73
2022/07/31 05:41:34;;;;;;;7.60;7.03;;;;;;;;;;5055728;28;20428;-75
2022/07/31 05:44:01;;;;;;;6.77;6.30;;;;;;;;;;5055571;28;20472;-76
2022/07/31 05:46:27;;;;;;;9.20;8.40;;;;;;;;;;5055448;28;20484;-72
2022/07/31 05:48:53;;;;;;;5.93;5.53;;;;;;;;;;5055407;28;20420;-77
2022/07/31 05:51:19;;;;;;;5.00;4.70;;;;;;;;;;5055368;28;20962;-76
2022/07/31 05:53:45;;;;;;;3.57;3.47;;;;;;;;;;5055318;28;20420;-75
2022/07/31 05:56:11;;;;;;;3.60;3.50;;;;;;;;;;5055782;28;20401;-65
2022/07/31 05:58:37;;;;;;;15.03;12.10;;;;;;;;;;5055146;28;20497;-65
2022/07/31 06:01:03;;;;;;;8.57;7.80;;;;;;;;;;5055190;28;20393;-65
2022/07/31 06:03:34;;;;;;;10.53;9.63;;;;;;;;;;5055043;28;20539;-64
2022/07/31 06:06:00;;;;;;;6.17;5.73;;;;;;;;;;5055317;28;20409;-65
2022/07/31 06:08:27;;;;;;;4.57;4.37;;;;;;;;;;5055046;28;20808;-65
2022/07/31 06:10:53;;;;;;;4.03;3.73;;;;;;;;;;5055000;28;20415;-68
2022/07/31 06:13:23;;;;;;;3.80;3.60;;;;;;;;;;5037026;28;20485;-73
2022/07/31 06:15:49;;;;;;;3.57;3.27;;;;;;;;;;5054495;28;20517;-72
2022/07/31 06:18:15;;;;;;;5.07;3.03;;;;;;;;;;5055003;28;20406;-69
2022/07/31 06:20:41;;;;;;;3.00;2.90;;;;;;;;;;5054731;28;20553;-74
2022/07/31 06:23:06;;;;;;;2.27;2.13;;;;;;;;;;5054794;28;20477;-73
2022/07/31 06:25:32;;;;;;;3.00;2.90;;;;;;;;;;5054708;28;20893;-68
2022/07/31 06:27:58;;;;;;;2.77;2.67;;;;;;;;;;5054542;28;20869;-70
2022/07/31 06:30:24;;;;;;;6.10;3.10;;;;;;;;;;5054539;28;20415;-75
2022/07/31 06:32:50;;;;;;;3.43;3.07;;;;;;;;;;5054842;28;20433;-71
2022/07/31 06:35:16;;;;;;;2.60;2.50;;;;;;;;;;5054381;28;20795;-75
2022/07/31 06:37:42;;;;;;;6.10;2.67;;;;;;;;;;5054401;28;20455;-70
2022/07/31 06:40:09;;;;;;;3.27;2.57;;;;;;;;;;5054665;28;20404;-74
2022/07/31 06:42:35;;;;;;;2.60;2.50;;;;;;;;;;5054344;28;20467;-74
2022/07/31 06:45:01;;;;;;;17.17;15.40;;;;;;;;;;5054123;28;20412;-68
2022/07/31 06:47:27;;;;;;;3.50;3.30;;;;;;;;;;5054038;28;20500;-75
2022/07/31 06:49:53;;;;;;;2.80;2.70;;;;;;;;;;5054255;28;20406;-73
2022/07/31 06:52:19;;;;;;;2.50;2.40;;;;;;;;;;5054411;28;20407;-73
2022/07/31 06:54:46;;;;;;;2.73;2.37;;;;;;;;;;5054133;28;20420;-74
2022/07/31 06:57:12;;;;;;;3.97;2.50;;;;;;;;;;5054156;28;20408;-75
2022/07/31 06:59:39;;;;;;;3.10;2.90;;;;;;;;;;5053935;28;20888;-71
2022/07/31 07:02:05;;;;;;;2.37;2.27;;;;;;;;;;5053876;28;20432;-72
2022/07/31 07:04:31;;;;;;;3.60;2.20;;;;;;;;;;5054077;28;20470;-72
2022/07/31 07:06:57;;;;;;;2.50;2.23;;;;;;;;;;5053814;28;20410;-75
2022/07/31 07:09:23;;;;;;;1.97;1.97;;;;;;;;;;5054057;28;20413;-69
2022/07/31 07:11:49;;;;;;;1.97;1.97;;;;;;;;;;5053799;28;20950;-67
2022/07/31 07:14:15;;;;;;;2.30;2.20;;;;;;;;;;5053776;28;20831;-67
2022/07/31 07:16:41;;;;;;;2.40;2.30;;;;;;;;;;5053645;28;20512;-65
2022/07/31 07:19:07;;;;;;;2.93;2.73;;;;;;;;;;5053612;28;20504;-67
2022/07/31 07:21:33;;;;;;;4.77;2.27;;;;;;;;;;5053647;28;20402;-64
2022/07/31 07:23:59;;;;;;;2.20;2.10;;;;;;;;;;5053494;28;20464;-66
2022/07/31 07:26:25;;;;;;;1.97;1.87;;;;;;;;;;5053482;28;20406;-67
2022/07/31 07:28:51;;;;;;;2.47;2.30;;;;;;;;;;5052799;28;20845;-66
2022/07/31 07:31:17;;;;;;;3.60;2.07;;;;;;;;;;5053258;28;20994;-67
2022/07/31 07:33:43;;;;;;;6.37;2.93;;;;;;;;;;5053172;28;20410;-66
2022/07/31 07:36:09;;;;;;;2.70;2.60;;;;;;;;;;5053387;28;20393;-64
2022/07/31 07:38:35;;;;;;;2.83;1.87;;;;;;;;;;5053485;28;20412;-66
2022/07/31 07:41:01;;;;;;;2.33;2.20;;;;;;;;;;5053433;28;20401;-64
2022/07/31 07:43:28;;;;;;;3.33;2.10;;;;;;;;;;5035485;28;20472;-64
2022/07/31 07:45:54;;;;;;;2.37;2.13;;;;;;;;;;5035745;28;20426;-64
2022/07/31 07:48:20;;;;;;;6.27;2.30;;;;;;;;;;5035393;28;20421;-71
2022/07/31 07:50:46;;;;;;;2.07;1.97;;;;;;;;;;5053279;28;20415;-73
2022/07/31 07:53:12;;;;;;;3.50;1.80;;;;;;;;;;5053568;28;20429;-73
2022/07/31 07:55:38;;;;;;;2.33;2.17;;;;;;;;;;5053308;28;20968;-74
2022/07/31 07:58:04;;;;;;;2.33;2.23;;;;;;;;;;5053255;28;20498;-73
2022/07/31 08:00:30;;;;;;;3.30;1.90;;;;;;;;;;5053277;28;20414;-74
2022/07/31 08:02:56;;;;;;;3.00;2.20;;;;;;;;;;5053133;28;20959;-71
2022/07/31 08:05:22;;;;;;;4.73;2.83;;;;;;;;;;5053193;28;20534;-74
2022/07/31 08:07:48;;;;;;;1.67;1.67;;;;;;;;;;5053177;28;20419;-72
2022/07/31 08:10:17;;;;;;;3.90;2.20;;;;;;;;;;5053135;28;20407;-74
2022/07/31 08:12:53;;;;;;;8.10;2.43;;;;;;;;;;5052940;28;20477;-66
2022/07/31 08:15:19;;;;;;;3.07;2.00;;;;;;;;;;5053084;28;20945;-70
2022/07/31 08:17:45;;;;;;;2.30;2.30;;;;;;;;;;5053126;28;20411;-70
2022/07/31 08:20:11;;;;;;;2.00;1.90;;;;;;;;;;5052908;28;20458;-74
2022/07/31 08:22:37;;;;;;;3.63;1.80;;;;;;;;;;5053123;28;20456;-68
2022/07/31 08:25:03;;;;;;;11.90;1.80;;;;;;;;;;5052934;28;20497;-72
2022/07/31 08:27:29;;;;;;;4.57;1.83;;;;;;;;;;5052916;28;20454;-72
2022/07/31 08:29:56;;;;;;;2.30;1.97;;;;;;;;;;5053038;28;20402;-69
2022/07/31 08:32:24;;;;;;;3.90;1.83;;;;;;;;;;5052834;28;20409;-75
2022/07/31 08:34:50;;;;;;;3.03;2.07;;;;;;;;;;5052940;28;20404;-70
2022/07/31 08:37:19;;;;;;;2.33;1.90;;;;;;;;;;5052894;28;20399;-70
2022/07/31 08:39:46;;;;;;;1.70;1.60;;;;;;;;;;5055185;28;20885;-68
2022/07/31 08:42:13;;;;;;;1.77;1.77;;;;;;;;;;5056766;28;20413;-72
2022/07/31 08:44:40;;;;;;;1.70;1.60;;;;;;;;;;5055354;28;20465;-72
2022/07/31 08:47:06;;;;;;;2.00;1.90;;;;;;;;;;5056483;28;20402;-68
2022/07/31 08:49:33;;;;;;;1.73;1.60;;;;;;;;;;5056281;28;20774;-73
2022/07/31 08:52:00;;;;;;;1.63;1.63;;;;;;;;;;5056421;28;20397;-71
2022/07/31 08:54:27;;;;;;;1.70;1.60;;;;;;;;;;5056368;28;20406;-70
2022/07/31 08:56:53;;;;;;;2.07;1.97;;;;;;;;;;5056299;28;20431;-68
2022/07/31 08:59:20;;;;;;;4.00;1.67;;;;;;;;;;5056347;28;20425;-70
2022/07/31 09:01:46;;;;;;;1.83;1.60;;;;;;;;;;5056213;28;20838;-67
2022/07/31 09:04:12;;;;;;;1.50;1.50;;;;;;;;;;5056318;28;20554;-70
2022/07/31 09:06:38;;;;;;;1.60;1.60;;;;;;;;;;5056141;28;20402;-68
2022/07/31 09:09:05;;;;;;;1.40;1.30;;;;;;;;;;5056067;28;20407;-71
2022/07/31 09:11:31;;;;;;;1.50;1.40;;;;;;;;;;5056344;28;20751;-70
2022/07/31 09:14:01;;;;;;;2.20;1.60;;;;;;;;;;5055936;28;20412;-71
2022/07/31 09:16:28;;;;;;;1.80;1.70;;;;;;;;;;5056140;28;20410;-68
2022/07/31 09:18:55;;;;;;;1.53;1.33;;;;;;;;;;5055759;28;20422;-70
2022/07/31 09:21:21;;;;;;;5.40;1.90;;;;;;;;;;5055812;28;20893;-67
2022/07/31 09:23:47;;;;;;;1.70;1.60;;;;;;;;;;5055793;28;20465;-72
2022/07/31 09:26:14;;;;;;;2.07;1.80;;;;;;;;;;5055776;28;20928;-70
2022/07/31 09:28:43;;;;;;;6.00;1.90;;;;;;;;;;5055789;28;20406;-69
2022/07/31 09:31:10;;;;;;;2.03;1.90;;;;;;;;;;5055666;28;20400;-73
2022/07/31 09:33:38;;;;;;;2.73;1.80;;;;;;;;;;5055548;28;20411;-68
2022/07/31 09:36:04;;;;;;;4.93;1.67;;;;;;;;;;5037666;28;20434;-68
2022/07/31 09:38:40;;;;;;;5.20;1.73;;;;;;;;;;5055576;28;20411;-75
2022/07/31 09:41:14;;;;;;;5.10;1.40;;;;;;;;;;5055818;28;20418;-72
2022/07/31 09:43:40;;;;;;;3.43;1.73;;;;;;;;;;5055617;28;20557;-67
2022/07/31 09:46:06;;;;;;;1.60;1.60;;;;;;;;;;5055476;28;20400;-70
2022/07/31 09:48:33;;;;;;;2.30;1.50;;;;;;;;;;5055581;28;20439;-72
2022/07/31 09:51:00;;;;;;;3.27;2.00;;;;;;;;;;5054601;28;20399;-71
2022/07/31 09:53:26;;;;;;;4.67;1.90;;;;;;;;;;5055485;28;20403;-65
2022/07/31 09:55:53;;;;;;;2.30;1.70;;;;;;;;;;5055277;28;20798;-65
2022/07/31 09:58:19;;;;;;;1.60;1.50;;;;;;;;;;5055380;28;20411;-70
2022/07/31 10:00:51;;;;;;;1.40;1.40;;;;;;;;;;5055062;28;20879;-65
2022/07/31 10:03:17;;;;;;;4.80;2.80;;;;;;;;;;5036837;28;20482;-65
2022/07/31 10:05:44;;;;;;;3.13;1.80;;;;;;;;;;5054942;28;20407;-68
2022/07/31 10:08:11;;;;;;;1.60;1.50;;;;;;;;;;5054874;28;20413;-69
2022/07/31 10:10:37;;;;;;;2.00;1.90;;;;;;;;;;5054739;28;20396;-69
2022/07/31 10:13:07;;;;;;;5.93;2.30;;;;;;;;;;5054678;28;20400;-71
2022/07/31 10:15:35;;;;;;;1.87;1.77;;;;;;;;;;5054590;28;20408;-72
2022/07/31 10:18:02;;;;;;;3.43;1.43;;;;;;;;;;5054610;28;20400;-72
2022/07/31 10:20:28;;;;;;;2.10;1.67;;;;;;;;;;5054607;28;20973;-71
2022/07/31 10:23:01;;;;;;;3.50;2.23;;;;;;;;;;5054580;28;20949;-69
2022/07/31 10:25:28;;;;;;;6.13;1.77;;;;;;;;;;5054662;28;20533;-66
2022/07/31 10:27:56;;;;;;;3.43;2.00;;;;;;;;;;5054549;28;20391;-74
2022/07/31 10:30:22;;;;;;;2.23;1.90;;;;;;;;;;5054747;28;20400;-70
2022/07/31 10:32:49;;;;;;;1.97;1.80;;;;;;;;;;5054465;28;20815;-69
2022/07/31 10:35:16;;;;;;;1.60;1.60;;;;;;;;;;5054430;28;20770;-68
2022/07/31 10:37:50;;;;;;;1.60;1.60;;;;;;;;;;5054437;28;20518;-71
2022/07/31 10:40:24;;;;;;;1.83;1.73;;;;;;;;;;5054221;28;20478;-71
2022/07/31 10:43:16;;;;;;;6.93;1.50;;;;;;;;;;5053985;28;20541;-74
2022/07/31 10:45:46;;;;;;;3.70;2.30;;;;;;;;;;5054076;28;20925;-73
2022/07/31 10:48:12;;;;;;;2.27;2.17;;;;;;;;;;5054145;28;20898;-72
2022/07/31 10:50:38;;;;;;;6.60;2.07;;;;;;;;;;5054118;28;20403;-73
2022/07/31 10:53:11;;;;;;;2.50;1.80;;;;;;;;;;5054008;28;20904;-71
2022/07/31 10:55:37;;;;;;;1.60;1.50;;;;;;;;;;5053956;28;20411;-72
2022/07/31 10:58:14;;;;;;;1.97;1.87;;;;;;;;;;5054269;28;20494;-74
2022/07/31 11:00:40;;;;;;;3.63;2.13;;;;;;;;;;5053924;28;20486;-71
2022/07/31 11:03:17;;;;;;;3.83;1.90;;;;;;;;;;5053742;28;20836;-68
2022/07/31 11:05:53;;;;;;;1.83;1.73;;;;;;;;;;5053824;28;20406;-71
2022/07/31 11:08:19;;;;;;;2.23;1.50;;;;;;;;;;5053821;28;20402;-71
2022/07/31 11:10:52;;;;;;;4.50;1.43;;;;;;;;;;5053784;28;20391;-71
2022/07/31 11:13:19;;;;;;;1.80;1.70;;;;;;;;;;5035890;28;20419;-73
2022/07/31 11:15:45;;;;;;;1.50;1.40;;;;;;;;;;5053709;28;20480;-69
2022/07/31 11:18:12;;;;;;;1.77;1.77;;;;;;;;;;5053893;28;20784;-70
2022/07/31 11:20:38;;;;;;;1.67;1.57;;;;;;;;;;5053602;28;20477;-67
2022/07/31 11:23:05;;;;;;;5.23;1.60;;;;;;;;;;5053582;28;20458;-66
2022/07/31 11:25:33;;;;;;;1.93;1.73;;;;;;;;;;5053638;28;20415;-72
2022/07/31 11:28:12;;;;;;;2.60;1.83;;;;;;;;;;5053596;28;20399;-71
2022/07/31 11:30:49;;;;;;;3.50;2.30;;;;;;;;;;5053839;28;20494;-65
2022/07/31 11:33:15;;;;;;;1.80;1.70;;;;;;;;;;5053355;28;20763;-65
2022/07/31 11:35:41;;;;;;;1.63;1.53;;;;;;;;;;5053501;28;20408;-68
2022/07/31 11:38:07;;;;;;;1.80;1.67;;;;;;;;;;5053671;28;20172;-67
2022/07/31 11:40:33;;;;;;;5.77;1.97;;;;;;;;;;5053438;28;20410;-71
2022/07/31 11:43:00;;;;;;;1.73;1.63;;;;;;;;;;5053316;28;20811;-73
2022/07/31 11:45:26;;;;;;;1.70;1.60;;;;;;;;;;5053307;28;20828;-71
2022/07/31 11:47:52;;;;;;;1.87;1.77;;;;;;;;;;5053377;28;20940;-71
2022/07/31 11:50:18;;;;;;;1.93;1.60;;;;;;;;;;5053404;28;20505;-70
2022/07/31 11:52:46;;;;;;;1.43;1.43;;;;;;;;;;5053342;28;20403;-70
2022/07/31 11:55:14;;;;;;;1.57;1.47;;;;;;;;;;5053311;28;20403;-74
2022/07/31 11:57:40;;;;;;;1.93;1.60;;;;;;;;;;5053437;28;20411;-69
2022/07/31 12:00:10;;;;;;;1.70;1.60;;;;;;;;;;5053098;28;20465;-66
2022/07/31 12:02:39;;;;;;;1.73;1.63;;;;;;;;;;5035293;28;20423;-73
2022/07/31 12:05:05;;;;;;;1.57;1.50;;;;;;;;;;5053230;28;20415;-73
2022/07/31 12:07:32;;;;;;;1.80;1.70;;;;;;;;;;5053225;28;20403;-69
2022/07/31 12:09:58;;;;;;;1.67;1.57;;;;;;;;;;5053177;28;20770;-70
2022/07/31 12:12:25;;;;;;;1.40;1.40;;;;;;;;;;5053043;28;20411;-67
2022/07/31 12:14:51;;;;;;;1.83;1.80;;;;;;;;;;5055847;28;20402;-66
2022/07/31 12:17:21;;;;;;;1.70;1.60;;;;;;;;;;5057043;28;20763;-66
2022/07/31 12:19:47;;;;;;;2.30;1.60;;;;;;;;;;5056865;28;20553;-68
2022/07/31 12:22:15;;;;;;;2.80;1.37;;;;;;;;;;5056978;28;20431;-65
2022/07/31 12:24:41;;;;;;;3.03;1.60;;;;;;;;;;5057163;28;20462;-65
2022/07/31 12:27:07;;;;;;;1.40;1.40;;;;;;;;;;5057158;28;20444;-65
2022/07/31 12:29:35;;;;;;;1.63;1.20;;;;;;;;;;5056835;28;20461;-66
2022/07/31 12:32:01;;;;;;;3.43;1.33;;;;;;;;;;5056723;28;20446;-69
2022/07/31 12:34:34;;;;;;;1.30;1.30;;;;;;;;;;5056797;28;20948;-73
2022/07/31 12:37:00;;;;;;;1.43;1.43;;;;;;;;;;5056800;28;20833;-68
2022/07/31 12:39:26;;;;;;;2.63;1.57;;;;;;;;;;5056972;28;20399;-72
2022/07/31 12:41:52;;;;;;;1.67;1.57;;;;;;;;;;5056576;28;20627;-68
2022/07/31 12:44:19;;;;;;;2.87;1.20;;;;;;;;;;5056265;28;20466;-70
2022/07/31 12:46:45;;;;;;;3.07;1.83;;;;;;;;;;5056445;28;20934;-71
2022/07/31 12:49:11;;;;;;;2.90;1.30;;;;;;;;;;5056468;28;20407;-71
2022/07/31 12:51:38;;;;;;;5.13;1.50;;;;;;;;;;5056642;28;20414;-72
2022/07/31 12:54:04;;;;;;;2.50;1.30;;;;;;;;;;5056431;28;20409;-72
2022/07/31 12:56:33;;;;;;;1.33;1.33;;;;;;;;;;5056361;28;20761;-72
2022/07/31 12:59:01;;;;;;;1.50;1.40;;;;;;;;;;5056270;28;21029;-73
2022/07/31 13:01:27;;;;;;;1.50;1.50;;;;;;;;;;5056258;28;20441;-68
2022/07/31 13:03:54;;;;;;;1.47;1.37;;;;;;;;;;5056147;28;20960;-69
2022/07/31 13:06:21;;;;;;;1.40;1.40;;;;;;;;;;5056175;28;20387;-64
2022/07/31 13:08:46;;;;;;;5.53;5.33;;;;;;;;;;5056093;28;20442;-65
2022/07/31 13:11:12;;;;;;;1.60;1.50;;;;;;;;;;5056094;28;20435;-66
2022/07/31 13:13:38;;;;;;;1.53;1.53;;;;;;;;;;5055995;28;20399;-64
2022/07/31 13:16:05;;;;;;;4.73;1.73;;;;;;;;;;5055970;28;20396;-66
2022/07/31 13:18:31;;;;;;;1.40;1.40;;;;;;;;;;5056449;28;20494;-64
2022/07/31 13:20:57;;;;;;;5.30;1.80;;;;;;;;;;5055745;28;20473;-66
2022/07/31 13:23:23;;;;;;;1.30;1.30;;;;;;;;;;5055990;28;20482;-67
2022/07/31 13:25:49;;;;;;;1.53;1.43;;;;;;;;;;5054631;28;20400;-65
2022/07/31 13:28:15;;;;;;;1.30;1.30;;;;;;;;;;5055836;28;20251;-69
2022/07/31 13:30:41;;;;;;;1.30;1.30;;;;;;;;;;5055696;28;20399;-68
2022/07/31 13:33:07;;;;;;;1.93;1.40;;;;;;;;;;5055929;28;20404;-71
2022/07/31 13:35:33;;;;;;;2.10;1.70;;;;;;;;;;5055660;28;20769;-70
2022/07/31 13:37:59;;;;;;;2.20;2.00;;;;;;;;;;5055549;28;20414;-71
2022/07/31 13:43:10;;;;;;;1.53;1.40;;;;;;;;;;5055649;28;20458;-71
2022/07/31 13:45:36;;;;;;;4.87;2.03;;;;;;;;;;5055458;28;20484;-68
2022/07/31 13:48:03;;;;;;;3.10;1.40;;;;;;;;;;5055393;28;20398;-73
2022/07/31 13:50:28;;;;;;;3.17;1.50;;;;;;;;;;5055292;28;20882;-71
2022/07/31 13:52:57;;;;;;;1.50;1.40;;;;;;;;;;5055323;28;20457;-69
2022/07/31 13:55:23;;;;;;;1.50;1.50;;;;;;;;;;5055219;28;20412;-69
2022/07/31 13:57:49;;;;;;;1.47;1.40;;;;;;;;;;5055239;28;20433;-64
2022/07/31 14:00:15;;;;;;;1.60;1.50;;;;;;;;;;5055171;28;20407;-66
2022/07/31 14:02:45;;;;;;;1.40;1.40;;;;;;;;;;5055271;28;20180;-65
2022/07/31 14:05:11;;;;;;;1.50;1.40;;;;;;;;;;5055124;28;20468;-69
2022/07/31 14:07:37;;;;;;;1.77;1.77;;;;;;;;;;5055028;28;20404;-71
2022/07/31 14:10:03;;;;;;;4.97;1.37;;;;;;;;;;5054984;28;20434;-69
2022/07/31 14:12:29;;;;;;;2.30;1.87;;;;;;;;;;5055207;28;20407;-71
2022/07/31 14:14:55;;;;;;;3.30;1.40;;;;;;;;;;5054852;28;20414;-68
2022/07/31 14:17:21;;;;;;;7.70;1.40;;;;;;;;;;5054986;28;20172;-71
2022/07/31 14:19:47;;;;;;;1.63;1.57;;;;;;;;;;5054670;28;20462;-70
2022/07/31 14:22:13;;;;;;;1.50;1.47;;;;;;;;;;5054759;28;20431;-73
2022/07/31 14:24:39;;;;;;;2.93;1.57;;;;;;;;;;5053560;28;20467;-71
2022/07/31 14:27:05;;;;;;;2.20;1.30;;;;;;;;;;5054637;28;20478;-73
2022/07/31 14:29:31;;;;;;;1.77;1.67;;;;;;;;;;5054545;28;20411;-70
2022/07/31 14:31:57;;;;;;;1.53;1.30;;;;;;;;;;5054598;28;20515;-67
2022/07/31 14:34:23;;;;;;;1.70;1.67;;;;;;;;;;5054469;28;20403;-70
2022/07/31 14:36:49;;;;;;;1.57;1.47;;;;;;;;;;5054182;28;20435;-68
2022/07/31 14:39:15;;;;;;;1.57;1.40;;;;;;;;;;5054680;28;20494;-70
2022/07/31 14:41:42;;;;;;;1.43;1.40;;;;;;;;;;5054619;28;20893;-71
2022/07/31 14:44:08;;;;;;;3.53;1.50;;;;;;;;;;5054416;28;20475;-74